sensor_id;sensor_type;location;lat;lon;timestamp;P1;durP1;ratioP1;P2;durP2;ratioP2
57225;SDS011;43082;43.568;22.256;2023-03-21T00:01:48;78.80;;;52.53;;
57225;SDS011;43082;43.568;22.256;2023-03-21T00:04:17;68.15;;;47.75;;
57225;SDS011;43082;43.568;22.256;2023-03-21T00:06:43;58.47;;;40.75;;
57225;SDS011;43082;43.568;22.256;2023-03-21T00:09:08;64.05;;;43.17;;
57225;SDS011;43082;43.568;22.256;2023-03-21T00:11:34;60.30;;;37.08;;
57225;SDS011;43082;43.568;22.256;2023-03-21T00:13:59;43.55;;;31.80;;
57225;SDS011;43082;43.568;22.256;2023-03-21T00:16:26;43.28;;;28.95;;
57225;SDS011;43082;43.568;22.256;2023-03-21T00:18:54;49.78;;;31.85;;
57225;SDS011;43082;43.568;22.256;2023-03-21T00:21:21;53.92;;;36.35;;
57225;SDS011;43082;43.568;22.256;2023-03-21T00:23:52;72.22;;;45.28;;
57225;SDS011;43082;43.568;22.256;2023-03-21T00:26:18;65.18;;;43.28;;
57225;SDS011;43082;43.568;22.256;2023-03-21T00:28:43;48.92;;;32.47;;
57225;SDS011;43082;43.568;22.256;2023-03-21T00:31:09;53.38;;;34.72;;
57225;SDS011;43082;43.568;22.256;2023-03-21T00:33:35;57.88;;;37.65;;
57225;SDS011;43082;43.568;22.256;2023-03-21T00:36:03;51.45;;;33.78;;
57225;SDS011;43082;43.568;22.256;2023-03-21T00:38:28;56.03;;;35.17;;
57225;SDS011;43082;43.568;22.256;2023-03-21T00:40:54;55.22;;;36.08;;
57225;SDS011;43082;43.568;22.256;2023-03-21T00:43:20;52.00;;;34.55;;
57225;SDS011;43082;43.568;22.256;2023-03-21T00:45:54;56.10;;;35.87;;
57225;SDS011;43082;43.568;22.256;2023-03-21T00:48:20;61.45;;;39.70;;
57225;SDS011;43082;43.568;22.256;2023-03-21T00:50:46;66.05;;;43.28;;
57225;SDS011;43082;43.568;22.256;2023-03-21T00:53:12;64.28;;;40.85;;
57225;SDS011;43082;43.568;22.256;2023-03-21T00:55:38;52.22;;;34.75;;
57225;SDS011;43082;43.568;22.256;2023-03-21T00:58:04;38.80;;;27.10;;
57225;SDS011;43082;43.568;22.256;2023-03-21T01:00:30;45.97;;;32.05;;
57225;SDS011;43082;43.568;22.256;2023-03-21T01:02:57;53.63;;;36.60;;
57225;SDS011;43082;43.568;22.256;2023-03-21T01:05:29;63.78;;;41.10;;
57225;SDS011;43082;43.568;22.256;2023-03-21T01:08:16;58.30;;;37.95;;
57225;SDS011;43082;43.568;22.256;2023-03-21T01:10:43;56.20;;;35.47;;
57225;SDS011;43082;43.568;22.256;2023-03-21T01:13:10;48.63;;;33.08;;
57225;SDS011;43082;43.568;22.256;2023-03-21T01:15:41;40.20;;;27.88;;
57225;SDS011;43082;43.568;22.256;2023-03-21T01:18:08;44.10;;;29.88;;
57225;SDS011;43082;43.568;22.256;2023-03-21T01:20:33;43.47;;;29.13;;
57225;SDS011;43082;43.568;22.256;2023-03-21T01:22:59;45.67;;;30.02;;
57225;SDS011;43082;43.568;22.256;2023-03-21T01:25:25;45.70;;;30.23;;
57225;SDS011;43082;43.568;22.256;2023-03-21T01:27:50;46.00;;;30.40;;
57225;SDS011;43082;43.568;22.256;2023-03-21T01:30:16;36.55;;;25.55;;
57225;SDS011;43082;43.568;22.256;2023-03-21T01:32:41;47.15;;;33.15;;
57225;SDS011;43082;43.568;22.256;2023-03-21T01:35:07;41.78;;;24.98;;
57225;SDS011;43082;43.568;22.256;2023-03-21T01:37:33;37.30;;;25.27;;
57225;SDS011;43082;43.568;22.256;2023-03-21T01:39:58;38.40;;;24.50;;
57225;SDS011;43082;43.568;22.256;2023-03-21T01:42:23;36.40;;;25.20;;
57225;SDS011;43082;43.568;22.256;2023-03-21T01:44:56;54.17;;;34.60;;
57225;SDS011;43082;43.568;22.256;2023-03-21T01:47:24;49.83;;;33.83;;
57225;SDS011;43082;43.568;22.256;2023-03-21T01:49:50;56.63;;;38.17;;
57225;SDS011;43082;43.568;22.256;2023-03-21T01:52:28;61.42;;;39.50;;
57225;SDS011;43082;43.568;22.256;2023-03-21T01:54:57;55.50;;;35.70;;
57225;SDS011;43082;43.568;22.256;2023-03-21T01:57:27;41.67;;;28.02;;
57225;SDS011;43082;43.568;22.256;2023-03-21T01:59:57;36.63;;;23.92;;
57225;SDS011;43082;43.568;22.256;2023-03-21T02:02:29;30.45;;;19.23;;
57225;SDS011;43082;43.568;22.256;2023-03-21T02:04:55;26.50;;;17.13;;
57225;SDS011;43082;43.568;22.256;2023-03-21T02:07:31;30.25;;;19.83;;
57225;SDS011;43082;43.568;22.256;2023-03-21T02:10:00;31.90;;;21.70;;
57225;SDS011;43082;43.568;22.256;2023-03-21T02:12:29;30.73;;;18.95;;
57225;SDS011;43082;43.568;22.256;2023-03-21T02:14:55;30.65;;;18.27;;
57225;SDS011;43082;43.568;22.256;2023-03-21T02:21:06;30.08;;;19.23;;
57225;SDS011;43082;43.568;22.256;2023-03-21T02:26:26;44.88;;;29.35;;
57225;SDS011;43082;43.568;22.256;2023-03-21T02:40:00;31.88;;;20.48;;
57225;SDS011;43082;43.568;22.256;2023-03-21T02:45:20;29.58;;;18.48;;
57225;SDS011;43082;43.568;22.256;2023-03-21T02:47:55;32.42;;;21.02;;
57225;SDS011;43082;43.568;22.256;2023-03-21T02:50:25;35.70;;;22.40;;
57225;SDS011;43082;43.568;22.256;2023-03-21T02:52:55;37.20;;;21.75;;
57225;SDS011;43082;43.568;22.256;2023-03-21T02:55:25;37.40;;;23.88;;
57225;SDS011;43082;43.568;22.256;2023-03-21T02:57:53;36.28;;;22.33;;
57225;SDS011;43082;43.568;22.256;2023-03-21T03:00:20;40.22;;;26.00;;
57225;SDS011;43082;43.568;22.256;2023-03-21T03:02:48;37.40;;;24.95;;
57225;SDS011;43082;43.568;22.256;2023-03-21T03:05:21;36.25;;;23.55;;
57225;SDS011;43082;43.568;22.256;2023-03-21T03:07:55;38.00;;;22.63;;
57225;SDS011;43082;43.568;22.256;2023-03-21T03:10:41;33.28;;;20.63;;
57225;SDS011;43082;43.568;22.256;2023-03-21T03:13:49;26.25;;;17.42;;
57225;SDS011;43082;43.568;22.256;2023-03-21T03:16:27;24.38;;;14.60;;
57225;SDS011;43082;43.568;22.256;2023-03-21T03:19:01;21.50;;;14.02;;
57225;SDS011;43082;43.568;22.256;2023-03-21T03:24:07;21.95;;;14.27;;
57225;SDS011;43082;43.568;22.256;2023-03-21T03:29:06;31.67;;;18.85;;
57225;SDS011;43082;43.568;22.256;2023-03-21T03:31:41;32.20;;;18.75;;
57225;SDS011;43082;43.568;22.256;2023-03-21T03:34:20;29.17;;;18.00;;
57225;SDS011;43082;43.568;22.256;2023-03-21T03:36:49;29.55;;;17.38;;
57225;SDS011;43082;43.568;22.256;2023-03-21T03:39:20;29.75;;;16.27;;
57225;SDS011;43082;43.568;22.256;2023-03-21T03:41:59;26.75;;;15.45;;
57225;SDS011;43082;43.568;22.256;2023-03-21T03:44:27;29.58;;;15.18;;
57225;SDS011;43082;43.568;22.256;2023-03-21T03:49:23;27.67;;;15.40;;
57225;SDS011;43082;43.568;22.256;2023-03-21T03:51:53;30.40;;;17.85;;
57225;SDS011;43082;43.568;22.256;2023-03-21T03:54:37;27.35;;;16.13;;
57225;SDS011;43082;43.568;22.256;2023-03-21T03:57:04;27.95;;;15.10;;
57225;SDS011;43082;43.568;22.256;2023-03-21T03:59:32;26.75;;;15.60;;
57225;SDS011;43082;43.568;22.256;2023-03-21T04:01:59;26.35;;;17.60;;
57225;SDS011;43082;43.568;22.256;2023-03-21T04:04:25;29.58;;;18.80;;
57225;SDS011;43082;43.568;22.256;2023-03-21T04:06:53;31.08;;;19.48;;
57225;SDS011;43082;43.568;22.256;2023-03-21T04:09:21;33.83;;;23.23;;
57225;SDS011;43082;43.568;22.256;2023-03-21T04:11:47;43.22;;;26.05;;
57225;SDS011;43082;43.568;22.256;2023-03-21T04:14:12;30.88;;;20.38;;
57225;SDS011;43082;43.568;22.256;2023-03-21T04:16:38;29.75;;;19.88;;
57225;SDS011;43082;43.568;22.256;2023-03-21T04:19:03;33.83;;;20.90;;
57225;SDS011;43082;43.568;22.256;2023-03-21T04:21:29;27.77;;;18.83;;
57225;SDS011;43082;43.568;22.256;2023-03-21T04:23:54;24.85;;;16.95;;
57225;SDS011;43082;43.568;22.256;2023-03-21T04:26:20;23.80;;;15.30;;
57225;SDS011;43082;43.568;22.256;2023-03-21T04:28:46;22.40;;;15.27;;
57225;SDS011;43082;43.568;22.256;2023-03-21T04:31:12;23.38;;;15.52;;
57225;SDS011;43082;43.568;22.256;2023-03-21T04:33:38;23.88;;;15.27;;
57225;SDS011;43082;43.568;22.256;2023-03-21T04:36:04;26.50;;;16.70;;
57225;SDS011;43082;43.568;22.256;2023-03-21T04:38:31;29.67;;;18.73;;
57225;SDS011;43082;43.568;22.256;2023-03-21T04:40:58;28.85;;;17.67;;
57225;SDS011;43082;43.568;22.256;2023-03-21T04:43:24;24.35;;;15.55;;
57225;SDS011;43082;43.568;22.256;2023-03-21T04:45:50;35.17;;;17.08;;
57225;SDS011;43082;43.568;22.256;2023-03-21T04:48:16;36.85;;;16.15;;
57225;SDS011;43082;43.568;22.256;2023-03-21T04:50:43;32.30;;;15.27;;
57225;SDS011;43082;43.568;22.256;2023-03-21T04:53:09;27.73;;;15.05;;
57225;SDS011;43082;43.568;22.256;2023-03-21T04:55:35;25.02;;;14.85;;
57225;SDS011;43082;43.568;22.256;2023-03-21T04:58:01;26.75;;;14.23;;
57225;SDS011;43082;43.568;22.256;2023-03-21T05:00:27;25.55;;;15.60;;
57225;SDS011;43082;43.568;22.256;2023-03-21T05:02:53;24.15;;;14.48;;
57225;SDS011;43082;43.568;22.256;2023-03-21T05:05:18;37.05;;;21.85;;
57225;SDS011;43082;43.568;22.256;2023-03-21T05:07:44;32.88;;;20.52;;
57225;SDS011;43082;43.568;22.256;2023-03-21T05:10:10;34.45;;;20.63;;
57225;SDS011;43082;43.568;22.256;2023-03-21T05:12:36;36.00;;;20.40;;
57225;SDS011;43082;43.568;22.256;2023-03-21T05:15:02;38.40;;;22.90;;
57225;SDS011;43082;43.568;22.256;2023-03-21T05:17:28;47.15;;;26.05;;
57225;SDS011;43082;43.568;22.256;2023-03-21T05:19:53;43.38;;;26.85;;
57225;SDS011;43082;43.568;22.256;2023-03-21T05:22:20;45.55;;;27.58;;
57225;SDS011;43082;43.568;22.256;2023-03-21T05:24:48;35.22;;;22.30;;
57225;SDS011;43082;43.568;22.256;2023-03-21T05:27:17;47.33;;;28.67;;
57225;SDS011;43082;43.568;22.256;2023-03-21T05:29:59;39.58;;;25.02;;
57225;SDS011;43082;43.568;22.256;2023-03-21T05:32:35;36.38;;;25.05;;
57225;SDS011;43082;43.568;22.256;2023-03-21T05:35:00;44.75;;;31.20;;
57225;SDS011;43082;43.568;22.256;2023-03-21T05:37:26;56.28;;;38.63;;
57225;SDS011;43082;43.568;22.256;2023-03-21T05:39:52;59.63;;;40.72;;
57225;SDS011;43082;43.568;22.256;2023-03-21T05:42:17;62.85;;;41.67;;
57225;SDS011;43082;43.568;22.256;2023-03-21T05:44:43;58.65;;;37.88;;
57225;SDS011;43082;43.568;22.256;2023-03-21T05:47:10;60.47;;;38.88;;
57225;SDS011;43082;43.568;22.256;2023-03-21T05:49:39;57.47;;;38.13;;
57225;SDS011;43082;43.568;22.256;2023-03-21T05:52:04;69.50;;;41.47;;
57225;SDS011;43082;43.568;22.256;2023-03-21T05:54:29;59.70;;;41.42;;
57225;SDS011;43082;43.568;22.256;2023-03-21T05:56:55;48.00;;;34.63;;
57225;SDS011;43082;43.568;22.256;2023-03-21T05:59:20;47.47;;;33.72;;
57225;SDS011;43082;43.568;22.256;2023-03-21T06:01:46;63.75;;;42.97;;
57225;SDS011;43082;43.568;22.256;2023-03-21T06:04:11;76.45;;;54.25;;
57225;SDS011;43082;43.568;22.256;2023-03-21T06:06:37;82.03;;;54.33;;
57225;SDS011;43082;43.568;22.256;2023-03-21T06:09:02;66.28;;;45.53;;
57225;SDS011;43082;43.568;22.256;2023-03-21T06:11:28;60.15;;;43.20;;
57225;SDS011;43082;43.568;22.256;2023-03-21T06:13:55;69.80;;;47.58;;
57225;SDS011;43082;43.568;22.256;2023-03-21T06:16:21;83.15;;;54.88;;
57225;SDS011;43082;43.568;22.256;2023-03-21T06:18:46;63.55;;;46.38;;
57225;SDS011;43082;43.568;22.256;2023-03-21T06:21:12;65.70;;;45.38;;
57225;SDS011;43082;43.568;22.256;2023-03-21T06:23:37;66.15;;;46.78;;
57225;SDS011;43082;43.568;22.256;2023-03-21T06:26:03;64.55;;;44.55;;
57225;SDS011;43082;43.568;22.256;2023-03-21T06:28:29;68.40;;;49.08;;
57225;SDS011;43082;43.568;22.256;2023-03-21T06:30:55;58.67;;;43.33;;
57225;SDS011;43082;43.568;22.256;2023-03-21T06:33:20;66.75;;;48.08;;
57225;SDS011;43082;43.568;22.256;2023-03-21T06:35:52;64.80;;;44.58;;
57225;SDS011;43082;43.568;22.256;2023-03-21T06:38:18;63.38;;;43.65;;
57225;SDS011;43082;43.568;22.256;2023-03-21T06:40:45;75.22;;;46.55;;
57225;SDS011;43082;43.568;22.256;2023-03-21T06:43:11;70.38;;;46.30;;
57225;SDS011;43082;43.568;22.256;2023-03-21T06:45:37;62.38;;;43.92;;
57225;SDS011;43082;43.568;22.256;2023-03-21T06:48:02;60.40;;;42.17;;
57225;SDS011;43082;43.568;22.256;2023-03-21T06:50:27;60.58;;;43.17;;
57225;SDS011;43082;43.568;22.256;2023-03-21T06:52:53;60.10;;;43.80;;
57225;SDS011;43082;43.568;22.256;2023-03-21T06:55:18;77.95;;;55.05;;
57225;SDS011;43082;43.568;22.256;2023-03-21T06:57:50;67.45;;;46.80;;
57225;SDS011;43082;43.568;22.256;2023-03-21T07:00:15;51.15;;;37.50;;
57225;SDS011;43082;43.568;22.256;2023-03-21T07:02:42;42.30;;;28.73;;
57225;SDS011;43082;43.568;22.256;2023-03-21T07:05:07;52.47;;;38.80;;
57225;SDS011;43082;43.568;22.256;2023-03-21T07:07:33;49.08;;;34.45;;
57225;SDS011;43082;43.568;22.256;2023-03-21T07:09:58;36.63;;;24.08;;
57225;SDS011;43082;43.568;22.256;2023-03-21T07:12:23;57.33;;;40.85;;
57225;SDS011;43082;43.568;22.256;2023-03-21T07:14:49;79.10;;;56.42;;
57225;SDS011;43082;43.568;22.256;2023-03-21T07:17:15;57.40;;;43.10;;
57225;SDS011;43082;43.568;22.256;2023-03-21T07:19:40;79.57;;;58.30;;
57225;SDS011;43082;43.568;22.256;2023-03-21T07:22:05;87.80;;;59.83;;
57225;SDS011;43082;43.568;22.256;2023-03-21T07:24:31;78.32;;;54.03;;
57225;SDS011;43082;43.568;22.256;2023-03-21T07:26:56;76.65;;;55.85;;
57225;SDS011;43082;43.568;22.256;2023-03-21T07:29:22;78.80;;;56.60;;
57225;SDS011;43082;43.568;22.256;2023-03-21T07:31:47;75.35;;;51.17;;
57225;SDS011;43082;43.568;22.256;2023-03-21T07:34:13;73.97;;;53.20;;
57225;SDS011;43082;43.568;22.256;2023-03-21T07:36:40;52.72;;;36.47;;
57225;SDS011;43082;43.568;22.256;2023-03-21T07:39:06;47.72;;;34.38;;
57225;SDS011;43082;43.568;22.256;2023-03-21T07:41:31;45.00;;;33.67;;
57225;SDS011;43082;43.568;22.256;2023-03-21T07:43:57;53.88;;;35.00;;
57225;SDS011;43082;43.568;22.256;2023-03-21T07:46:22;48.60;;;32.35;;
57225;SDS011;43082;43.568;22.256;2023-03-21T07:48:48;49.42;;;34.90;;
57225;SDS011;43082;43.568;22.256;2023-03-21T07:51:13;57.90;;;39.90;;
57225;SDS011;43082;43.568;22.256;2023-03-21T07:53:38;48.58;;;35.85;;
57225;SDS011;43082;43.568;22.256;2023-03-21T07:56:06;44.80;;;30.92;;
57225;SDS011;43082;43.568;22.256;2023-03-21T07:58:31;41.30;;;28.48;;
57225;SDS011;43082;43.568;22.256;2023-03-21T08:00:58;49.13;;;32.97;;
57225;SDS011;43082;43.568;22.256;2023-03-21T08:03:24;45.95;;;33.28;;
57225;SDS011;43082;43.568;22.256;2023-03-21T08:05:53;45.80;;;33.38;;
57225;SDS011;43082;43.568;22.256;2023-03-21T08:08:19;47.88;;;32.05;;
57225;SDS011;43082;43.568;22.256;2023-03-21T08:10:45;42.15;;;30.60;;
57225;SDS011;43082;43.568;22.256;2023-03-21T08:13:11;53.25;;;38.25;;
57225;SDS011;43082;43.568;22.256;2023-03-21T08:15:37;52.30;;;41.45;;
57225;SDS011;43082;43.568;22.256;2023-03-21T08:18:06;41.58;;;30.52;;
57225;SDS011;43082;43.568;22.256;2023-03-21T08:20:32;44.10;;;30.70;;
57225;SDS011;43082;43.568;22.256;2023-03-21T08:22:57;42.83;;;28.63;;
57225;SDS011;43082;43.568;22.256;2023-03-21T08:25:23;40.40;;;28.35;;
57225;SDS011;43082;43.568;22.256;2023-03-21T08:27:49;34.80;;;25.52;;
57225;SDS011;43082;43.568;22.256;2023-03-21T08:30:17;39.60;;;23.20;;
57225;SDS011;43082;43.568;22.256;2023-03-21T08:32:43;34.72;;;23.50;;
57225;SDS011;43082;43.568;22.256;2023-03-21T08:35:09;34.90;;;22.02;;
57225;SDS011;43082;43.568;22.256;2023-03-21T08:37:36;28.73;;;19.48;;
57225;SDS011;43082;43.568;22.256;2023-03-21T08:40:03;28.20;;;16.92;;
57225;SDS011;43082;43.568;22.256;2023-03-21T08:42:32;21.15;;;13.20;;
57225;SDS011;43082;43.568;22.256;2023-03-21T08:44:57;24.60;;;13.60;;
57225;SDS011;43082;43.568;22.256;2023-03-21T08:47:23;27.48;;;18.20;;
57225;SDS011;43082;43.568;22.256;2023-03-21T08:49:48;22.48;;;12.40;;
57225;SDS011;43082;43.568;22.256;2023-03-21T08:52:14;25.10;;;13.27;;
57225;SDS011;43082;43.568;22.256;2023-03-21T08:54:39;51.47;;;31.10;;
57225;SDS011;43082;43.568;22.256;2023-03-21T08:57:06;20.23;;;11.68;;
57225;SDS011;43082;43.568;22.256;2023-03-21T08:59:32;18.95;;;10.57;;
57225;SDS011;43082;43.568;22.256;2023-03-21T09:01:58;22.67;;;11.88;;
57225;SDS011;43082;43.568;22.256;2023-03-21T09:04:23;17.33;;;10.98;;
57225;SDS011;43082;43.568;22.256;2023-03-21T09:06:51;15.25;;;9.98;;
57225;SDS011;43082;43.568;22.256;2023-03-21T09:09:20;16.95;;;10.93;;
57225;SDS011;43082;43.568;22.256;2023-03-21T09:11:45;17.15;;;10.13;;
57225;SDS011;43082;43.568;22.256;2023-03-21T09:14:11;16.42;;;9.80;;
57225;SDS011;43082;43.568;22.256;2023-03-21T09:16:36;16.90;;;9.82;;
57225;SDS011;43082;43.568;22.256;2023-03-21T09:19:01;16.63;;;8.13;;
57225;SDS011;43082;43.568;22.256;2023-03-21T09:21:29;14.27;;;8.38;;
57225;SDS011;43082;43.568;22.256;2023-03-21T09:23:55;13.35;;;6.95;;
57225;SDS011;43082;43.568;22.256;2023-03-21T09:26:23;13.43;;;8.00;;
57225;SDS011;43082;43.568;22.256;2023-03-21T09:28:49;18.85;;;8.48;;
57225;SDS011;43082;43.568;22.256;2023-03-21T09:31:15;11.30;;;6.60;;
57225;SDS011;43082;43.568;22.256;2023-03-21T09:33:46;12.70;;;7.57;;
57225;SDS011;43082;43.568;22.256;2023-03-21T09:36:15;15.20;;;7.32;;
57225;SDS011;43082;43.568;22.256;2023-03-21T09:38:43;15.63;;;7.78;;
57225;SDS011;43082;43.568;22.256;2023-03-21T09:46:35;18.10;;;8.00;;
57225;SDS011;43082;43.568;22.256;2023-03-21T09:51:35;17.05;;;12.23;;
57225;SDS011;43082;43.568;22.256;2023-03-21T09:54:16;13.70;;;7.10;;
57225;SDS011;43082;43.568;22.256;2023-03-21T09:56:43;14.45;;;6.93;;
57225;SDS011;43082;43.568;22.256;2023-03-21T09:59:09;12.48;;;7.57;;
57225;SDS011;43082;43.568;22.256;2023-03-21T10:01:51;16.67;;;8.88;;
57225;SDS011;43082;43.568;22.256;2023-03-21T10:04:18;13.18;;;6.22;;
57225;SDS011;43082;43.568;22.256;2023-03-21T10:06:45;18.52;;;12.23;;
57225;SDS011;43082;43.568;22.256;2023-03-21T10:09:18;15.20;;;6.70;;
57225;SDS011;43082;43.568;22.256;2023-03-21T10:11:57;37.72;;;20.42;;
57225;SDS011;43082;43.568;22.256;2023-03-21T10:17:19;13.95;;;6.85;;
57225;SDS011;43082;43.568;22.256;2023-03-21T10:19:55;15.13;;;7.63;;
57225;SDS011;43082;43.568;22.256;2023-03-21T10:22:24;13.07;;;7.10;;
57225;SDS011;43082;43.568;22.256;2023-03-21T10:24:50;12.88;;;7.60;;
57225;SDS011;43082;43.568;22.256;2023-03-21T10:27:15;10.40;;;5.90;;
57225;SDS011;43082;43.568;22.256;2023-03-21T10:29:42;13.05;;;6.53;;
57225;SDS011;43082;43.568;22.256;2023-03-21T10:32:12;12.95;;;7.60;;
57225;SDS011;43082;43.568;22.256;2023-03-21T10:34:41;12.68;;;7.57;;
57225;SDS011;43082;43.568;22.256;2023-03-21T10:37:09;10.02;;;5.30;;
57225;SDS011;43082;43.568;22.256;2023-03-21T10:39:36;11.93;;;6.15;;
57225;SDS011;43082;43.568;22.256;2023-03-21T10:42:03;11.98;;;4.82;;
57225;SDS011;43082;43.568;22.256;2023-03-21T10:44:29;10.55;;;5.38;;
57225;SDS011;43082;43.568;22.256;2023-03-21T10:46:57;10.45;;;5.97;;
57225;SDS011;43082;43.568;22.256;2023-03-21T10:49:29;16.13;;;7.97;;
57225;SDS011;43082;43.568;22.256;2023-03-21T10:52:01;11.35;;;5.55;;
57225;SDS011;43082;43.568;22.256;2023-03-21T10:54:28;16.85;;;6.07;;
57225;SDS011;43082;43.568;22.256;2023-03-21T10:59:36;10.18;;;4.75;;
57225;SDS011;43082;43.568;22.256;2023-03-21T11:02:04;12.32;;;6.45;;
57225;SDS011;43082;43.568;22.256;2023-03-21T11:04:31;9.50;;;3.40;;
57225;SDS011;43082;43.568;22.256;2023-03-21T11:06:57;15.68;;;4.60;;
57225;SDS011;43082;43.568;22.256;2023-03-21T11:12:37;14.50;;;4.15;;
57225;SDS011;43082;43.568;22.256;2023-03-21T11:15:24;16.95;;;9.82;;
57225;SDS011;43082;43.568;22.256;2023-03-21T11:20:53;27.50;;;18.17;;
57225;SDS011;43082;43.568;22.256;2023-03-21T11:23:20;12.07;;;5.97;;
57225;SDS011;43082;43.568;22.256;2023-03-21T11:25:47;16.77;;;8.55;;
57225;SDS011;43082;43.568;22.256;2023-03-21T11:28:16;34.88;;;22.33;;
57225;SDS011;43082;43.568;22.256;2023-03-21T11:30:55;11.65;;;5.00;;
57225;SDS011;43082;43.568;22.256;2023-03-21T11:33:24;28.98;;;20.27;;
57225;SDS011;43082;43.568;22.256;2023-03-21T11:36:59;18.40;;;11.15;;
57225;SDS011;43082;43.568;22.256;2023-03-21T11:38:58;16.90;;;9.68;;
57225;SDS011;43082;43.568;22.256;2023-03-21T11:41:29;15.85;;;9.45;;
57225;SDS011;43082;43.568;22.256;2023-03-21T11:43:58;20.38;;;11.20;;
57225;SDS011;43082;43.568;22.256;2023-03-21T11:46:29;12.10;;;6.07;;
57225;SDS011;43082;43.568;22.256;2023-03-21T11:48:55;13.43;;;7.45;;
57225;SDS011;43082;43.568;22.256;2023-03-21T11:51:39;38.85;;;24.60;;
57225;SDS011;43082;43.568;22.256;2023-03-21T11:54:09;27.60;;;14.67;;
57225;SDS011;43082;43.568;22.256;2023-03-21T11:56:46;27.42;;;14.90;;
57225;SDS011;43082;43.568;22.256;2023-03-21T12:01:59;20.73;;;9.90;;
57225;SDS011;43082;43.568;22.256;2023-03-21T12:15:37;12.18;;;5.68;;
57225;SDS011;43082;43.568;22.256;2023-03-21T12:18:24;10.75;;;5.72;;
57225;SDS011;43082;43.568;22.256;2023-03-21T12:21:05;12.55;;;6.47;;
57225;SDS011;43082;43.568;22.256;2023-03-21T12:39:11;16.25;;;7.65;;
57225;SDS011;43082;43.568;22.256;2023-03-21T12:44:12;13.27;;;6.80;;
57225;SDS011;43082;43.568;22.256;2023-03-21T12:46:50;11.65;;;6.15;;
57225;SDS011;43082;43.568;22.256;2023-03-21T12:52:06;13.93;;;6.10;;
57225;SDS011;43082;43.568;22.256;2023-03-21T12:54:52;13.10;;;5.88;;
57225;SDS011;43082;43.568;22.256;2023-03-21T12:57:25;12.43;;;6.95;;
57225;SDS011;43082;43.568;22.256;2023-03-21T13:02:27;13.00;;;6.15;;
57225;SDS011;43082;43.568;22.256;2023-03-21T13:07:44;14.23;;;8.80;;
57225;SDS011;43082;43.568;22.256;2023-03-21T13:10:17;30.95;;;20.00;;
57225;SDS011;43082;43.568;22.256;2023-03-21T13:12:50;15.88;;;7.90;;
57225;SDS011;43082;43.568;22.256;2023-03-21T13:16:07;16.83;;;8.93;;
57225;SDS011;43082;43.568;22.256;2023-03-21T13:27:06;9.85;;;4.43;;
57225;SDS011;43082;43.568;22.256;2023-03-21T13:29:45;9.98;;;4.07;;
57225;SDS011;43082;43.568;22.256;2023-03-21T13:34:57;7.55;;;3.88;;
57225;SDS011;43082;43.568;22.256;2023-03-21T13:37:25;9.27;;;3.92;;
57225;SDS011;43082;43.568;22.256;2023-03-21T13:39:58;10.60;;;3.80;;
57225;SDS011;43082;43.568;22.256;2023-03-21T13:42:28;9.73;;;4.20;;
57225;SDS011;43082;43.568;22.256;2023-03-21T13:44:57;8.70;;;3.53;;
57225;SDS011;43082;43.568;22.256;2023-03-21T13:55:29;8.32;;;4.10;;
57225;SDS011;43082;43.568;22.256;2023-03-21T13:57:55;11.07;;;5.03;;
57225;SDS011;43082;43.568;22.256;2023-03-21T14:00:29;10.48;;;5.07;;
57225;SDS011;43082;43.568;22.256;2023-03-21T14:02:59;16.50;;;8.75;;
57225;SDS011;43082;43.568;22.256;2023-03-21T14:05:29;11.10;;;4.30;;
57225;SDS011;43082;43.568;22.256;2023-03-21T14:08:05;12.60;;;4.70;;
57225;SDS011;43082;43.568;22.256;2023-03-21T14:10:33;8.68;;;4.00;;
57225;SDS011;43082;43.568;22.256;2023-03-21T14:13:01;8.60;;;4.30;;
57225;SDS011;43082;43.568;22.256;2023-03-21T14:15:36;10.50;;;4.38;;
57225;SDS011;43082;43.568;22.256;2023-03-21T14:18:02;12.52;;;4.63;;
57225;SDS011;43082;43.568;22.256;2023-03-21T14:20:35;10.65;;;4.80;;
57225;SDS011;43082;43.568;22.256;2023-03-21T14:23:05;12.35;;;6.40;;
57225;SDS011;43082;43.568;22.256;2023-03-21T14:25:33;13.75;;;7.15;;
57225;SDS011;43082;43.568;22.256;2023-03-21T14:28:00;16.08;;;7.65;;
57225;SDS011;43082;43.568;22.256;2023-03-21T14:30:30;13.18;;;7.20;;
57225;SDS011;43082;43.568;22.256;2023-03-21T14:33:17;16.35;;;7.75;;
57225;SDS011;43082;43.568;22.256;2023-03-21T14:35:49;16.65;;;9.45;;
57225;SDS011;43082;43.568;22.256;2023-03-21T14:38:19;19.30;;;10.20;;
57225;SDS011;43082;43.568;22.256;2023-03-21T14:40:47;31.02;;;13.55;;
57225;SDS011;43082;43.568;22.256;2023-03-21T14:43:15;17.05;;;8.63;;
57225;SDS011;43082;43.568;22.256;2023-03-21T14:45:45;19.35;;;9.82;;
57225;SDS011;43082;43.568;22.256;2023-03-21T14:48:12;18.52;;;10.80;;
57225;SDS011;43082;43.568;22.256;2023-03-21T14:50:56;17.10;;;10.18;;
57225;SDS011;43082;43.568;22.256;2023-03-21T14:53:26;19.08;;;12.70;;
57225;SDS011;43082;43.568;22.256;2023-03-21T14:58:23;25.45;;;17.95;;
57225;SDS011;43082;43.568;22.256;2023-03-21T15:00:49;32.13;;;19.33;;
57225;SDS011;43082;43.568;22.256;2023-03-21T15:03:18;65.07;;;38.55;;
57225;SDS011;43082;43.568;22.256;2023-03-21T15:05:45;33.08;;;20.88;;
57225;SDS011;43082;43.568;22.256;2023-03-21T15:10:36;12.95;;;5.60;;
57225;SDS011;43082;43.568;22.256;2023-03-21T15:13:12;8.57;;;4.78;;
57225;SDS011;43082;43.568;22.256;2023-03-21T15:15:40;9.02;;;4.88;;
57225;SDS011;43082;43.568;22.256;2023-03-21T15:18:06;12.07;;;4.95;;
57225;SDS011;43082;43.568;22.256;2023-03-21T15:20:33;9.93;;;5.55;;
57225;SDS011;43082;43.568;22.256;2023-03-21T15:23:01;12.93;;;6.03;;
57225;SDS011;43082;43.568;22.256;2023-03-21T15:25:31;10.32;;;7.10;;
57225;SDS011;43082;43.568;22.256;2023-03-21T15:27:58;12.73;;;7.38;;
57225;SDS011;43082;43.568;22.256;2023-03-21T15:30:28;13.85;;;5.68;;
57225;SDS011;43082;43.568;22.256;2023-03-21T15:32:55;9.52;;;5.60;;
57225;SDS011;43082;43.568;22.256;2023-03-21T15:35:33;12.60;;;5.57;;
57225;SDS011;43082;43.568;22.256;2023-03-21T15:38:02;10.00;;;4.43;;
57225;SDS011;43082;43.568;22.256;2023-03-21T15:40:29;8.65;;;4.63;;
57225;SDS011;43082;43.568;22.256;2023-03-21T15:45:52;11.10;;;5.20;;
57225;SDS011;43082;43.568;22.256;2023-03-21T15:48:28;10.93;;;6.13;;
57225;SDS011;43082;43.568;22.256;2023-03-21T15:53:33;14.50;;;7.35;;
57225;SDS011;43082;43.568;22.256;2023-03-21T15:56:00;13.90;;;8.30;;
57225;SDS011;43082;43.568;22.256;2023-03-21T15:58:33;11.60;;;6.30;;
57225;SDS011;43082;43.568;22.256;2023-03-21T16:01:02;9.68;;;5.38;;
57225;SDS011;43082;43.568;22.256;2023-03-21T16:03:31;14.10;;;7.28;;
57225;SDS011;43082;43.568;22.256;2023-03-21T16:08:42;13.00;;;7.72;;
57225;SDS011;43082;43.568;22.256;2023-03-21T16:13:43;18.45;;;8.68;;
57225;SDS011;43082;43.568;22.256;2023-03-21T16:16:19;18.88;;;10.88;;
57225;SDS011;43082;43.568;22.256;2023-03-21T16:18:52;22.98;;;14.60;;
57225;SDS011;43082;43.568;22.256;2023-03-21T16:21:19;27.45;;;18.83;;
57225;SDS011;43082;43.568;22.256;2023-03-21T16:23:47;26.20;;;17.27;;
57225;SDS011;43082;43.568;22.256;2023-03-21T16:26:13;31.13;;;21.67;;